Time;durP1;ratioP1;P1;durP2;ratioP2;P2;SDS_P1;SDS_P2;PMS_P1;PMS_P2;Temp;Humidity;BMP_temperature;BMP_pressure;BME280_temperature;BME280_humidity;BME280_pressure;Samples;Min_cycle;Max_cycle;Signal;HPM_P1;HPM_P2
2022/12/13 00:01:30;;;;;;;37.33;14.75;;;-0.30;99.90;;;;;;5034071;28;20469;-41
2022/12/13 00:03:58;;;;;;;38.40;16.35;;;-0.30;99.90;;;;;;5033722;28;20037;-41
2022/12/13 00:06:24;;;;;;;38.17;15.63;;;-0.30;99.90;;;;;;5032419;28;20052;-41
2022/12/13 00:08:49;;;;;;;41.60;15.98;;;-0.30;99.90;;;;;;5032990;28;20472;-40
2022/12/13 00:11:15;;;;;;;40.72;16.30;;;-0.30;99.90;;;;;;5033833;28;20035;-40
2022/12/13 00:13:41;;;;;;;36.05;15.57;;;-0.40;99.90;;;;;;5033679;28;20075;-40
2022/12/13 00:16:11;;;;;;;39.25;15.77;;;-0.40;99.90;;;;;;5033407;28;20033;-42
2022/12/13 00:18:37;;;;;;;41.25;16.67;;;-0.40;99.90;;;;;;5039414;28;20491;-41
2022/12/13 00:21:08;;;;;;;40.17;16.25;;;-0.30;99.90;;;;;;5032164;28;20025;-47
2022/12/13 00:23:34;;;;;;;38.95;15.90;;;-0.10;99.90;;;;;;5037763;28;20031;-40
2022/12/13 00:26:11;;;;;;;37.05;15.38;;;-0.30;99.90;;;;;;5035060;28;20040;-41
2022/12/13 00:28:38;;;;;;;37.53;15.43;;;-0.30;99.90;;;;;;5033239;28;20030;-40
2022/12/13 00:31:03;;;;;;;38.05;15.52;;;-0.30;99.90;;;;;;5033089;28;20056;-40
2022/12/13 00:33:29;;;;;;;35.00;14.75;;;-0.30;99.90;;;;;;5033475;28;20523;-39
2022/12/13 00:35:55;;;;;;;37.13;14.95;;;-0.30;99.90;;;;;;5033169;28;20126;-40
2022/12/13 00:38:22;;;;;;;39.70;15.85;;;-0.40;99.90;;;;;;5037341;28;20133;-43
2022/12/13 00:40:49;;;;;;;35.92;14.82;;;-0.30;99.90;;;;;;5037783;28;20079;-43
2022/12/13 00:43:15;;;;;;;39.88;15.98;;;-0.40;99.90;;;;;;5035180;28;20033;-41
2022/12/13 00:45:40;;;;;;;37.03;14.85;;;-0.50;99.90;;;;;;5029717;28;20029;-42
2022/12/13 00:48:06;;;;;;;40.95;15.02;;;-0.50;99.90;;;;;;5042195;28;20044;-40
2022/12/13 00:50:33;;;;;;;38.78;15.65;;;-0.50;99.90;;;;;;5048119;28;20491;-42
2022/12/13 00:52:59;;;;;;;35.70;15.88;;;-0.50;99.90;;;;;;5046946;28;20036;-42
2022/12/13 00:55:25;;;;;;;35.30;15.02;;;-0.50;99.90;;;;;;5041268;28;20044;-41
2022/12/13 00:57:51;;;;;;;36.67;14.25;;;-0.50;99.90;;;;;;5031349;28;20435;-45
2022/12/13 01:00:17;;;;;;;32.28;13.40;;;-0.60;99.90;;;;;;5046619;28;20017;-40
2022/12/13 01:02:42;;;;;;;34.92;13.85;;;-0.60;99.90;;;;;;5049210;28;20402;-44
2022/12/13 01:05:09;;;;;;;33.85;13.98;;;-0.60;99.90;;;;;;5050987;28;20021;-40
2022/12/13 01:07:36;;;;;;;33.90;13.13;;;-0.60;99.90;;;;;;5043787;28;20025;-41
2022/12/13 01:10:02;;;;;;;32.88;13.77;;;-0.60;99.90;;;;;;5040737;28;20025;-43
2022/12/13 01:12:27;;;;;;;30.40;13.45;;;-0.60;99.90;;;;;;5044404;28;20032;-40
2022/12/13 01:14:53;;;;;;;39.15;13.77;;;-0.70;99.90;;;;;;5045328;28;20177;-53
2022/12/13 01:17:19;;;;;;;35.53;13.63;;;-0.80;99.90;;;;;;5050510;28;20156;-49
2022/12/13 01:19:44;;;;;;;28.92;12.60;;;-0.70;99.90;;;;;;5045484;28;20039;-49
2022/12/13 01:22:10;;;;;;;31.77;12.82;;;-0.80;99.90;;;;;;5035580;28;20078;-52
2022/12/13 01:24:37;;;;;;;31.00;12.40;;;-0.80;99.90;;;;;;5037819;28;20013;-40
2022/12/13 01:27:03;;;;;;;33.13;13.25;;;-0.80;99.90;;;;;;5035892;28;20095;-40
2022/12/13 01:29:29;;;;;;;30.20;13.30;;;-0.80;99.90;;;;;;5050389;28;20108;-49
2022/12/13 01:31:55;;;;;;;31.23;12.95;;;-0.80;99.90;;;;;;5051151;28;20096;-41
2022/12/13 01:34:21;;;;;;;30.45;12.18;;;-0.80;99.90;;;;;;5038539;28;20022;-47
2022/12/13 01:36:47;;;;;;;32.20;13.27;;;-0.80;99.90;;;;;;5032079;28;20037;-42
2022/12/13 01:39:16;;;;;;;36.03;14.07;;;-0.70;99.90;;;;;;5030799;28;20017;-46
2022/12/13 01:41:45;;;;;;;33.87;13.00;;;-0.80;99.90;;;;;;5031947;28;20067;-40
2022/12/13 01:44:48;;;;;;;32.42;12.70;;;-0.70;99.90;;;;;;5032058;28;20293;-40
2022/12/13 01:47:17;;;;;;;31.02;12.10;;;-0.80;99.90;;;;;;5029786;28;20041;-44
2022/12/13 01:49:43;;;;;;;32.65;12.02;;;-0.80;99.90;;;;;;5029813;28;20480;-42
2022/12/13 01:52:11;;;;;;;33.33;11.45;;;-0.80;99.90;;;;;;5029945;28;20076;-43
2022/12/13 01:54:43;;;;;;;36.50;12.88;;;-0.80;99.90;;;;;;5029982;28;20029;-40
2022/12/13 01:57:11;;;;;;;31.08;11.32;;;-0.80;99.90;;;;;;5029381;28;20029;-40
2022/12/13 01:59:40;;;;;;;34.78;11.65;;;-0.90;99.90;;;;;;5030129;28;20034;-40
2022/12/13 02:02:08;;;;;;;30.93;11.97;;;-0.80;99.90;;;;;;5031447;28;20492;-43
2022/12/13 02:04:53;;;;;;;32.15;12.65;;;-0.90;99.90;;;;;;5031980;28;20025;-43
2022/12/13 02:07:23;;;;;;;27.83;11.73;;;-0.90;99.90;;;;;;5031764;28;20041;-47
2022/12/13 02:09:52;;;;;;;30.20;12.50;;;-0.90;99.90;;;;;;5031566;28;20056;-40
2022/12/13 02:12:17;;;;;;;29.17;11.35;;;-0.90;99.90;;;;;;5031827;28;20060;-42
2022/12/13 02:14:43;;;;;;;28.02;11.32;;;-0.90;99.90;;;;;;5031382;28;20069;-48
2022/12/13 02:17:38;;;;;;;27.75;11.05;;;-1.00;99.90;;;;;;5031734;28;20025;-40
2022/12/13 02:20:12;;;;;;;27.52;10.68;;;-1.00;99.90;;;;;;5031411;28;20053;-48
2022/12/13 02:22:56;;;;;;;24.17;11.38;;;-1.00;99.90;;;;;;5031453;28;20079;-40
2022/12/13 02:25:34;;;;;;;29.48;11.40;;;-1.00;99.90;;;;;;5031172;28;20538;-42
2022/12/13 02:28:26;;;;;;;28.45;11.25;;;-1.00;99.90;;;;;;5031430;28;20041;-45
2022/12/13 02:31:03;;;;;;;31.23;11.77;;;-1.00;99.90;;;;;;5031249;28;20026;-40
2022/12/13 02:33:52;;;;;;;27.95;11.82;;;-1.00;99.90;;;;;;5031142;28;20373;-47
2022/12/13 02:36:31;;;;;;;25.63;10.40;;;-1.00;99.90;;;;;;5030771;28;20095;-43
2022/12/13 02:39:20;;;;;;;25.52;10.85;;;-1.00;99.90;;;;;;5030823;28;20263;-42
2022/12/13 02:41:56;;;;;;;24.52;10.15;;;-1.00;99.90;;;;;;5030698;28;20041;-41
2022/12/13 02:45:01;;;;;;;27.23;9.88;;;-1.00;99.90;;;;;;5031184;28;20037;-39
2022/12/13 02:47:29;;;;;;;29.15;10.05;;;-1.10;99.90;;;;;;5030885;28;20061;-41
2022/12/13 02:50:00;;;;;;;30.08;11.02;;;-1.10;99.90;;;;;;5031075;28;20025;-47
2022/12/13 02:52:29;;;;;;;24.52;9.82;;;-1.00;99.90;;;;;;5030742;28;20033;-40
2022/12/13 02:54:56;;;;;;;22.17;9.60;;;-1.10;99.90;;;;;;5030963;28;20018;-40
2022/12/13 02:57:32;;;;;;;23.88;10.05;;;-1.10;99.90;;;;;;5030565;28;20755;-48
2022/12/13 03:00:03;;;;;;;25.83;9.73;;;-1.20;99.90;;;;;;5029684;28;20033;-43
2022/12/13 03:02:35;;;;;;;26.00;9.65;;;-1.10;99.90;;;;;;5030059;28;20483;-45
2022/12/13 03:08:45;;;;;;;21.58;9.07;;;-1.20;99.90;;;;;;5031013;28;20048;-58
2022/12/13 03:11:15;;;;;;;20.40;8.32;;;-1.30;99.90;;;;;;5030662;28;20022;-46
2022/12/13 03:13:52;;;;;;;25.50;9.40;;;-1.30;99.90;;;;;;5030452;28;20440;-51
2022/12/13 03:16:33;;;;;;;23.58;8.60;;;-1.30;99.90;;;;;;5030840;28;20022;-50
2022/12/13 03:19:01;;;;;;;22.95;8.80;;;-1.20;99.90;;;;;;5030603;28;20030;-47
2022/12/13 03:21:27;;;;;;;18.92;8.65;;;-1.20;99.90;;;;;;5030553;28;20057;-55
2022/12/13 03:23:54;;;;;;;26.23;9.77;;;-1.20;99.90;;;;;;5030359;28;20025;-50
2022/12/13 03:26:24;;;;;;;18.05;8.40;;;-1.20;99.90;;;;;;5030174;28;20045;-42
2022/12/13 03:28:50;;;;;;;24.30;8.65;;;-1.10;99.90;;;;;;5029675;28;20026;-42
2022/12/13 03:31:16;;;;;;;25.67;9.35;;;-1.20;99.90;;;;;;5033769;28;20079;-39
2022/12/13 03:33:42;;;;;;;21.67;9.05;;;-1.10;99.90;;;;;;5042216;28;20025;-39
2022/12/13 03:36:08;;;;;;;21.38;8.98;;;-1.20;99.90;;;;;;5039894;28;20037;-39
2022/12/13 03:38:35;;;;;;;21.45;9.00;;;-1.20;99.90;;;;;;5046876;28;20025;-39
2022/12/13 03:41:06;;;;;;;21.13;8.85;;;-1.20;99.90;;;;;;5050406;28;20074;-39
2022/12/13 03:43:32;;;;;;;19.83;8.15;;;-1.20;99.90;;;;;;5047793;28;20033;-43
2022/12/13 03:45:57;;;;;;;26.05;9.35;;;-1.20;99.90;;;;;;5036306;28;20036;-40
2022/12/13 03:48:23;;;;;;;22.33;8.13;;;-1.30;99.90;;;;;;5050247;28;20059;-41
2022/12/13 03:50:50;;;;;;;21.77;8.57;;;-1.20;99.90;;;;;;5050454;28;20017;-44
2022/12/13 03:53:16;;;;;;;20.35;9.00;;;-1.20;99.90;;;;;;5032118;28;20155;-39
2022/12/13 03:55:41;;;;;;;17.75;7.97;;;-1.20;99.90;;;;;;5036494;28;20104;-39
2022/12/13 03:58:07;;;;;;;17.42;7.93;;;-1.20;99.90;;;;;;5050290;28;20136;-40
2022/12/13 04:00:32;;;;;;;17.05;7.10;;;-1.20;99.90;;;;;;5049200;28;20115;-40
2022/12/13 04:02:58;;;;;;;20.42;7.95;;;-1.20;99.90;;;;;;5036968;28;20032;-40
2022/12/13 04:05:24;;;;;;;15.35;6.97;;;-1.20;99.90;;;;;;5050232;28;20409;-43
2022/12/13 04:07:49;;;;;;;17.35;7.57;;;-1.20;99.90;;;;;;5049837;28;20427;-43
2022/12/13 04:10:15;;;;;;;19.15;7.45;;;-1.20;99.90;;;;;;5050234;28;20028;-44
2022/12/13 04:15:25;;;;;;;16.90;7.63;;;-1.30;99.90;;;;;;5054046;28;20032;-40
2022/12/13 04:17:51;;;;;;;21.30;8.18;;;-1.30;99.90;;;;;;5053864;28;20021;-40
2022/12/13 04:20:16;;;;;;;14.82;7.32;;;-1.30;99.90;;;;;;5054007;28;20446;-40
2022/12/13 04:22:42;;;;;;;16.95;6.85;;;-1.30;99.90;;;;;;5040534;28;20493;-40
2022/12/13 04:25:08;;;;;;;18.38;6.18;;;-1.30;99.90;;;;;;5053726;28;20112;-43
2022/12/13 04:27:33;;;;;;;17.05;6.40;;;-1.40;99.90;;;;;;5053615;28;20033;-45
2022/12/13 04:29:59;;;;;;;16.35;7.07;;;-1.40;99.90;;;;;;5053213;28;20415;-39
2022/12/13 04:32:25;;;;;;;15.80;6.40;;;-1.40;99.90;;;;;;5053548;28;20037;-41
2022/12/13 04:34:50;;;;;;;16.67;6.63;;;-1.40;99.90;;;;;;5051351;28;20125;-40
2022/12/13 04:37:16;;;;;;;16.52;5.93;;;-1.50;99.90;;;;;;5041494;28;20498;-39
2022/12/13 04:39:41;;;;;;;15.65;7.07;;;-1.40;99.90;;;;;;5053405;28;20404;-44
2022/12/13 04:42:08;;;;;;;15.65;5.90;;;-1.50;99.90;;;;;;5025490;28;20035;-39
2022/12/13 04:44:33;;;;;;;12.07;6.80;;;-1.50;99.90;;;;;;5053550;28;20398;-39
2022/12/13 04:47:01;;;;;;;13.68;5.68;;;-1.50;99.90;;;;;;5053205;28;20412;-39
2022/12/13 04:49:28;;;;;;;13.02;6.32;;;-1.60;99.90;;;;;;5053461;28;20079;-39
2022/12/13 04:51:54;;;;;;;14.30;5.93;;;-1.60;99.90;;;;;;5042420;28;20033;-39
2022/12/13 04:54:19;;;;;;;12.52;5.97;;;-1.60;99.90;;;;;;5052952;28;20025;-48
2022/12/13 04:56:45;;;;;;;17.00;6.80;;;-1.60;99.90;;;;;;5053514;28;20032;-44
2022/12/13 04:59:11;;;;;;;14.75;7.13;;;-1.60;99.90;;;;;;5052790;28;20408;-43
2022/12/13 05:01:36;;;;;;;15.55;6.47;;;-1.60;99.90;;;;;;5052974;28;20384;-39
2022/12/13 05:04:03;;;;;;;14.95;6.72;;;-1.70;99.90;;;;;;5053018;28;20100;-50
2022/12/13 05:06:47;;;;;;;14.75;7.03;;;-1.70;99.90;;;;;;4784661;22;22114;-41
2022/12/13 05:09:13;;;;;;;15.23;6.40;;;-1.70;99.90;;;;;;5032725;23;20041;-40
2022/12/13 05:11:38;;;;;;;11.30;5.80;;;-1.70;99.90;;;;;;5032492;28;20371;-51
2022/12/13 05:14:04;;;;;;;10.48;5.07;;;-1.80;99.90;;;;;;5031107;28;20124;-44
2022/12/13 05:16:30;;;;;;;12.90;5.93;;;-1.70;99.90;;;;;;5031047;28;20045;-53
2022/12/13 05:18:55;;;;;;;17.60;6.20;;;-1.80;99.90;;;;;;5023301;28;20428;-49
2022/12/13 05:21:21;;;;;;;15.00;6.40;;;-1.70;99.90;;;;;;5032201;28;20040;-51
2022/12/13 05:23:46;;;;;;;12.10;6.50;;;-1.70;99.90;;;;;;5030918;28;20527;-47
2022/12/13 05:26:12;;;;;;;14.65;6.88;;;-1.80;99.90;;;;;;5032428;28;20090;-41
2022/12/13 05:28:37;;;;;;;12.63;6.03;;;-1.80;99.90;;;;;;5032533;28;20036;-51
2022/12/13 05:31:11;;;;;;;17.25;6.40;;;-1.80;99.90;;;;;;5026561;28;20033;-48
2022/12/13 05:33:37;;;;;;;13.48;6.22;;;-1.80;99.90;;;;;;5032266;28;20026;-45
2022/12/13 05:36:04;;;;;;;16.80;6.47;;;-1.80;99.90;;;;;;5032297;28;20099;-42
2022/12/13 05:38:30;;;;;;;15.73;5.88;;;-1.70;99.90;;;;;;5032384;28;20025;-40
2022/12/13 05:40:57;;;;;;;14.52;6.28;;;-1.80;99.90;;;;;;5032122;28;20029;-43
2022/12/13 05:43:23;;;;;;;16.70;5.95;;;-1.80;99.90;;;;;;5032087;28;20036;-44
2022/12/13 05:45:49;;;;;;;13.30;5.97;;;-1.80;99.90;;;;;;5032207;28;20033;-40
2022/12/13 05:48:15;;;;;;;13.20;6.72;;;-1.80;99.90;;;;;;5030585;28;20049;-45
2022/12/13 05:50:40;;;;;;;16.02;6.32;;;-1.80;99.90;;;;;;5027410;28;20433;-44
2022/12/13 05:53:06;;;;;;;14.82;6.55;;;-1.90;99.90;;;;;;5025904;28;20495;-42
2022/12/13 05:55:32;;;;;;;13.23;6.32;;;-1.90;99.90;;;;;;5031929;28;20106;-40
2022/12/13 05:57:58;;;;;;;17.95;7.35;;;-1.90;99.90;;;;;;5031572;28;20380;-48
2022/12/13 06:00:24;;;;;;;14.73;5.85;;;-1.90;99.90;;;;;;5031606;28;20036;-40
2022/12/13 06:02:50;;;;;;;16.08;5.80;;;-1.80;99.90;;;;;;5031703;28;20029;-40
2022/12/13 06:05:16;;;;;;;13.52;6.15;;;-1.90;99.90;;;;;;5031948;28;20095;-40
2022/12/13 06:07:41;;;;;;;13.90;6.80;;;-1.90;99.90;;;;;;5031645;28;20443;-42
2022/12/13 06:10:08;;;;;;;15.73;6.80;;;-1.90;99.90;;;;;;5030435;28;20435;-44
2022/12/13 06:12:34;;;;;;;14.57;6.43;;;-1.90;99.90;;;;;;5031658;28;20511;-40
2022/12/13 06:15:00;;;;;;;13.23;5.82;;;-2.00;99.90;;;;;;5025567;28;20028;-51
2022/12/13 06:17:34;;;;;;;13.73;6.68;;;-2.00;99.90;;;;;;5031255;28;20029;-43
2022/12/13 06:19:59;;;;;;;22.35;8.85;;;-2.00;99.90;;;;;;5030237;28;20112;-46
2022/12/13 06:22:25;;;;;;;22.80;9.70;;;-2.00;99.90;;;;;;5031239;28;20057;-53
2022/12/13 06:24:52;;;;;;;20.25;8.98;;;-2.10;99.90;;;;;;5031680;28;20442;-49
2022/12/13 06:27:17;;;;;;;20.15;9.95;;;-2.10;99.90;;;;;;5031138;28;20041;-43
2022/12/13 06:29:43;;;;;;;24.40;12.70;;;-2.10;99.90;;;;;;5031281;28;20029;-46
2022/12/13 06:32:09;;;;;;;21.67;11.77;;;-2.00;99.90;;;;;;5031397;28;20097;-45
2022/12/13 06:34:35;;;;;;;19.05;8.95;;;-1.90;99.90;;;;;;5031307;28;20024;-49
2022/12/13 06:37:04;;;;;;;17.75;8.18;;;-1.90;99.90;;;;;;5030273;28;20082;-42
2022/12/13 06:39:30;;;;;;;16.90;8.20;;;-2.00;99.90;;;;;;5031340;28;20075;-49
2022/12/13 06:41:55;;;;;;;14.05;7.65;;;-2.00;99.90;;;;;;5031042;28;20021;-47
2022/12/13 06:44:21;;;;;;;13.13;7.28;;;-2.00;99.90;;;;;;5031015;28;20033;-45
2022/12/13 06:46:47;;;;;;;15.77;7.65;;;-2.00;99.90;;;;;;5031234;28;20033;-52
2022/12/13 06:49:12;;;;;;;13.80;6.50;;;-2.00;99.90;;;;;;5030996;28;20025;-47
2022/12/13 06:51:38;;;;;;;17.38;7.43;;;-2.00;99.90;;;;;;5026655;28;20065;-40
2022/12/13 06:54:04;;;;;;;18.95;10.85;;;-2.10;99.90;;;;;;5030655;28;20048;-43
2022/12/13 06:56:30;;;;;;;20.55;9.45;;;-2.00;99.90;;;;;;5031192;28;20116;-44
2022/12/13 06:58:56;;;;;;;20.17;8.77;;;-1.90;99.90;;;;;;5030870;28;20136;-40
2022/12/13 07:01:22;;;;;;;18.17;8.55;;;-2.10;99.90;;;;;;5030460;28;20416;-44
2022/12/13 07:03:48;;;;;;;17.60;8.25;;;-2.00;99.90;;;;;;5030054;28;20014;-46
2022/12/13 07:06:19;;;;;;;17.83;7.75;;;-2.00;99.90;;;;;;5030220;28;20030;-39
2022/12/13 07:08:49;;;;;;;18.67;8.60;;;-1.90;99.90;;;;;;5030933;28;20048;-44
2022/12/13 07:11:17;;;;;;;18.25;8.15;;;-1.90;99.90;;;;;;5030813;28;20029;-40
2022/12/13 07:13:42;;;;;;;18.83;8.73;;;-1.90;99.90;;;;;;5030780;28;20476;-45
2022/12/13 07:16:09;;;;;;;16.48;7.85;;;-1.80;99.90;;;;;;5030578;28;20052;-43
2022/12/13 07:18:35;;;;;;;18.60;8.27;;;-1.80;99.90;;;;;;5030746;28;20029;-46
2022/12/13 07:21:04;;;;;;;17.42;7.97;;;-1.80;99.90;;;;;;5029273;28;20503;-40
2022/12/13 07:23:29;;;;;;;20.00;8.43;;;-1.80;99.90;;;;;;5030026;28;20072;-44
2022/12/13 07:25:55;;;;;;;19.17;7.88;;;-1.70;99.90;;;;;;5030333;28;20056;-45
2022/12/13 07:28:21;;;;;;;14.60;7.07;;;-1.70;99.90;;;;;;5030342;28;20128;-41
2022/12/13 07:30:47;;;;;;;20.63;8.60;;;-1.70;99.90;;;;;;5029585;28;20426;-42
2022/12/13 07:33:14;;;;;;;22.60;8.73;;;-1.60;99.90;;;;;;5030215;28;20100;-44
2022/12/13 07:35:40;;;;;;;20.45;8.88;;;-1.70;99.90;;;;;;5030296;28;20025;-42
2022/12/13 07:38:07;;;;;;;24.80;9.35;;;-1.70;99.90;;;;;;5030006;28;20109;-42
2022/12/13 07:40:37;;;;;;;21.92;8.93;;;-1.70;99.90;;;;;;5029985;28;20026;-51
2022/12/13 07:43:03;;;;;;;17.48;8.93;;;-1.70;99.90;;;;;;5029133;28;20365;-40
2022/12/13 07:45:29;;;;;;;23.88;9.50;;;-1.70;99.90;;;;;;5029673;28;20111;-40
2022/12/13 07:47:55;;;;;;;25.48;9.45;;;-1.70;99.90;;;;;;5030211;28;20056;-39
2022/12/13 07:50:21;;;;;;;20.70;9.25;;;-1.70;99.90;;;;;;5033596;28;20029;-40
2022/12/13 07:52:47;;;;;;;26.05;10.85;;;-1.60;99.90;;;;;;5032941;28;20432;-40
2022/12/13 07:55:13;;;;;;;19.27;9.63;;;-1.70;99.90;;;;;;5034008;28;20068;-39
2022/12/13 07:57:39;;;;;;;19.10;9.43;;;-1.70;99.90;;;;;;5028182;28;20049;-43
2022/12/13 08:00:05;;;;;;;21.48;9.57;;;-1.70;99.90;;;;;;5034171;28;20025;-39
2022/12/13 08:02:31;;;;;;;23.92;10.27;;;-1.70;99.90;;;;;;5033056;28;20033;-38
2022/12/13 08:04:57;;;;;;;20.58;9.15;;;-1.60;99.90;;;;;;5033117;28;20026;-39
2022/12/13 08:07:22;;;;;;;21.67;10.32;;;-1.70;99.90;;;;;;5032492;28;20076;-39
2022/12/13 08:09:48;;;;;;;22.58;10.40;;;-1.60;99.90;;;;;;5033706;28;20052;-46
2022/12/13 08:12:13;;;;;;;19.98;8.93;;;-1.60;99.90;;;;;;5034154;28;20029;-42
2022/12/13 08:14:39;;;;;;;21.02;9.35;;;-1.60;99.90;;;;;;5033978;28;20438;-43
2022/12/13 08:17:05;;;;;;;21.63;9.90;;;-1.50;99.90;;;;;;5033949;28;20040;-43
2022/12/13 08:19:30;;;;;;;23.27;10.75;;;-1.50;99.90;;;;;;5033709;28;20116;-44
2022/12/13 08:21:56;;;;;;;21.90;10.25;;;-1.40;99.90;;;;;;5021254;28;20029;-40
2022/12/13 08:24:23;;;;;;;21.80;9.98;;;-1.30;99.90;;;;;;5032723;28;20022;-45
2022/12/13 08:26:49;;;;;;;19.73;9.18;;;-1.20;99.90;;;;;;5023972;28;20552;-45
2022/12/13 08:29:15;;;;;;;20.55;9.50;;;-1.10;99.90;;;;;;5033601;28;20448;-46
2022/12/13 08:31:40;;;;;;;20.42;9.40;;;-1.00;99.90;;;;;;5033331;28;20542;-41
2022/12/13 08:34:07;;;;;;;20.58;10.20;;;-0.90;99.90;;;;;;5033256;28;20026;-43
2022/12/13 08:36:33;;;;;;;21.02;9.57;;;-0.70;99.90;;;;;;5033077;28;20668;-40
2022/12/13 08:39:01;;;;;;;15.23;8.43;;;-0.50;99.90;;;;;;5032962;28;20037;-44
2022/12/13 08:41:28;;;;;;;18.45;8.45;;;-0.40;99.90;;;;;;5033370;28;20057;-43
2022/12/13 08:43:53;;;;;;;18.95;9.43;;;-0.30;99.90;;;;;;5033434;28;20025;-40
2022/12/13 08:46:19;;;;;;;20.30;9.57;;;-0.20;99.90;;;;;;5033956;28;20222;-48
2022/12/13 08:48:45;;;;;;;19.13;8.95;;;-0.20;99.90;;;;;;5033297;28;20498;-46
2022/12/13 08:51:16;;;;;;;14.85;8.10;;;-0.10;99.90;;;;;;5025644;28;20029;-47
2022/12/13 08:53:42;;;;;;;18.05;8.65;;;-0.10;99.90;;;;;;5032011;28;20049;-45
2022/12/13 08:56:10;;;;;;;19.40;9.02;;;-0.10;99.90;;;;;;5032974;28;20040;-52
2022/12/13 08:58:37;;;;;;;19.02;8.63;;;0.00;99.90;;;;;;5028945;28;20113;-39
2022/12/13 09:01:07;;;;;;;13.90;8.02;;;0.00;99.90;;;;;;5030674;28;20080;-38
2022/12/13 09:03:33;;;;;;;19.10;8.02;;;0.10;99.90;;;;;;5030942;28;20071;-37
2022/12/13 09:06:12;;;;;;;19.00;8.35;;;0.10;99.90;;;;;;5030331;28;20076;-40
2022/12/13 09:08:38;;;;;;;16.95;8.50;;;0.20;99.90;;;;;;5030756;28;20071;-38
2022/12/13 09:11:04;;;;;;;17.65;8.55;;;0.30;99.90;;;;;;5032863;28;20179;-38
2022/12/13 09:13:33;;;;;;;20.58;9.48;;;0.40;99.90;;;;;;5032984;28;20026;-45
2022/12/13 09:16:08;;;;;;;18.58;8.80;;;0.50;99.90;;;;;;5032535;28;20040;-48
2022/12/13 09:18:34;;;;;;;18.98;8.98;;;0.70;99.90;;;;;;5032747;28;20030;-40
2022/12/13 09:21:04;;;;;;;19.50;8.32;;;0.80;99.90;;;;;;5022879;28;20049;-48
2022/12/13 09:23:30;;;;;;;16.85;9.35;;;1.00;99.90;;;;;;5032387;28;20025;-43
2022/12/13 09:25:57;;;;;;;16.60;8.55;;;1.20;99.90;;;;;;5032574;28;20092;-40
2022/12/13 09:28:23;;;;;;;14.88;8.05;;;1.40;99.90;;;;;;5032552;28;20025;-46
2022/12/13 09:30:49;;;;;;;15.52;8.07;;;1.50;99.90;;;;;;5032484;28;20047;-46
2022/12/13 09:33:15;;;;;;;16.60;8.32;;;1.70;99.90;;;;;;5032425;28;20056;-39
2022/12/13 09:35:40;;;;;;;18.23;8.88;;;1.80;99.90;;;;;;5032423;28;20173;-40
2022/12/13 09:38:07;;;;;;;17.70;8.60;;;1.90;99.90;;;;;;5032284;28;20076;-44
2022/12/13 09:40:35;;;;;;;14.95;8.55;;;2.00;99.90;;;;;;5030532;28;20401;-39
2022/12/13 09:43:02;;;;;;;17.17;8.45;;;1.90;99.90;;;;;;5031339;28;20495;-42
2022/12/13 09:45:28;;;;;;;15.65;8.52;;;2.00;99.90;;;;;;5031056;28;20021;-40
2022/12/13 09:47:55;;;;;;;20.02;8.55;;;1.90;99.90;;;;;;5031136;28;20032;-45
2022/12/13 09:50:26;;;;;;;13.10;7.80;;;2.00;99.90;;;;;;5031680;28;20030;-45
2022/12/13 09:52:52;;;;;;;14.73;8.18;;;2.00;99.90;;;;;;5031469;28;20492;-49
2022/12/13 09:55:23;;;;;;;17.65;8.68;;;1.90;99.90;;;;;;5031128;28;20033;-40
2022/12/13 09:57:50;;;;;;;15.73;8.30;;;2.00;99.90;;;;;;5030844;28;20025;-43
2022/12/13 10:00:19;;;;;;;17.52;8.35;;;2.00;99.90;;;;;;5031481;28;20026;-43
2022/12/13 10:02:48;;;;;;;17.27;8.10;;;2.00;99.90;;;;;;5031746;28;20018;-40
2022/12/13 10:05:20;;;;;;;15.45;8.02;;;2.10;99.90;;;;;;5030725;28;20108;-39
2022/12/13 10:07:46;;;;;;;19.23;8.68;;;2.20;99.90;;;;;;5031199;28;20073;-39
2022/12/13 10:10:13;;;;;;;16.80;8.57;;;2.30;99.90;;;;;;5031191;28;20472;-45
2022/12/13 10:12:43;;;;;;;14.63;8.43;;;2.50;99.90;;;;;;5031240;28;20025;-40
2022/12/13 10:15:12;;;;;;;15.90;8.30;;;2.70;99.90;;;;;;5031245;28;20021;-39
2022/12/13 10:17:47;;;;;;;15.43;8.10;;;2.80;99.90;;;;;;5030677;28;20032;-40
2022/12/13 10:20:17;;;;;;;14.95;7.55;;;3.00;99.90;;;;;;5030825;28;20128;-43
2022/12/13 10:22:43;;;;;;;16.50;8.50;;;3.00;99.90;;;;;;5027867;28;20033;-44
2022/12/13 10:25:09;;;;;;;14.73;8.13;;;3.00;99.90;;;;;;5030803;28;20084;-40
2022/12/13 10:27:45;;;;;;;14.73;8.02;;;3.00;99.90;;;;;;5031432;28;20049;-40
2022/12/13 10:30:20;;;;;;;17.10;8.65;;;2.80;99.90;;;;;;5032817;28;20029;-44
2022/12/13 10:32:56;;;;;;;16.95;8.43;;;2.80;99.90;;;;;;5036786;28;20507;-45
2022/12/13 10:35:35;;;;;;;14.70;7.97;;;2.70;99.90;;;;;;5032795;28;20064;-53
2022/12/13 10:38:28;;;;;;;15.85;8.73;;;2.70;99.90;;;;;;5031317;28;20018;-47
2022/12/13 10:40:53;;;;;;;15.85;7.80;;;2.70;99.90;;;;;;5030559;28;20036;-51
2022/12/13 10:43:26;;;;;;;14.82;7.90;;;2.60;99.90;;;;;;5011910;28;20401;-50
2022/12/13 10:45:57;;;;;;;19.27;9.10;;;2.70;99.90;;;;;;5016234;28;20498;-41
2022/12/13 10:48:48;;;;;;;16.63;8.70;;;2.70;99.90;;;;;;5015494;28;20113;-52
2022/12/13 10:51:16;;;;;;;18.08;8.60;;;2.70;99.90;;;;;;5016237;28;20026;-50
2022/12/13 10:53:58;;;;;;;19.77;8.95;;;2.70;99.90;;;;;;5018712;28;20092;-47
2022/12/13 10:56:37;;;;;;;15.77;8.35;;;2.80;99.90;;;;;;5031799;28;20407;-42
2022/12/13 10:59:24;;;;;;;19.33;9.02;;;2.80;99.90;;;;;;5031128;28;20141;-45
2022/12/13 11:01:50;;;;;;;15.30;7.95;;;2.90;99.90;;;;;;5030138;28;20440;-45
2022/12/13 11:04:34;;;;;;;17.08;8.60;;;3.00;99.90;;;;;;5027079;28;20494;-44
2022/12/13 11:07:30;;;;;;;16.40;8.98;;;3.00;99.90;;;;;;5028501;28;20037;-44
2022/12/13 11:09:57;;;;;;;16.50;9.15;;;2.90;99.90;;;;;;5028843;28;20912;-46
2022/12/13 11:12:25;;;;;;;17.15;8.60;;;2.80;99.90;;;;;;5015901;28;20041;-44
2022/12/13 11:15:02;;;;;;;15.98;8.95;;;2.80;99.90;;;;;;5043897;28;20487;-39
2022/12/13 11:17:30;;;;;;;15.75;9.20;;;2.70;99.90;;;;;;5027920;28;20041;-39
2022/12/13 11:19:59;;;;;;;14.60;8.40;;;2.90;99.90;;;;;;5030600;28;20029;-39
2022/12/13 11:22:28;;;;;;;16.05;9.50;;;2.90;99.90;;;;;;5016316;28;20107;-40
2022/12/13 11:25:06;;;;;;;19.10;9.57;;;2.90;99.90;;;;;;5015145;28;20030;-41
2022/12/13 11:27:48;;;;;;;14.68;8.32;;;3.00;99.90;;;;;;5014091;28;20405;-45
2022/12/13 11:30:26;;;;;;;16.45;8.90;;;3.00;99.90;;;;;;5024836;28;20068;-44
2022/12/13 11:33:16;;;;;;;18.60;8.77;;;2.90;99.90;;;;;;5026598;28;20104;-41
2022/12/13 11:35:53;;;;;;;15.77;8.60;;;2.70;99.90;;;;;;5025592;28;20439;-46
2022/12/13 11:38:27;;;;;;;17.17;9.13;;;2.60;99.90;;;;;;5028655;28;20018;-47
2022/12/13 11:40:59;;;;;;;15.70;8.75;;;2.70;99.90;;;;;;5012399;28;20030;-43
2022/12/13 11:43:41;;;;;;;18.73;9.02;;;2.70;99.90;;;;;;5018887;28;20057;-40
2022/12/13 11:46:19;;;;;;;20.92;10.02;;;2.80;99.90;;;;;;5011370;28;20537;-52
2022/12/13 11:48:58;;;;;;;17.67;9.55;;;3.00;99.90;;;;;;5011443;28;20581;-41
2022/12/13 11:51:30;;;;;;;16.48;9.00;;;3.10;99.90;;;;;;5011329;28;20049;-40
2022/12/13 11:54:14;;;;;;;16.33;9.20;;;3.40;99.90;;;;;;5026081;28;20041;-40
2022/12/13 11:56:42;;;;;;;17.13;9.15;;;3.90;99.90;;;;;;5024911;28;20030;-40
2022/12/13 11:59:36;;;;;;;16.60;8.55;;;4.50;99.90;;;;;;5012501;28;20034;-41
2022/12/13 12:02:15;;;;;;;15.68;8.48;;;5.20;99.90;;;;;;5015709;28;20116;-41
2022/12/13 12:04:53;;;;;;;18.70;8.32;;;6.10;99.90;;;;;;5011046;28;20033;-40
2022/12/13 12:07:28;;;;;;;14.85;8.02;;;7.10;99.90;;;;;;5011163;28;20042;-42
2022/12/13 12:10:13;;;;;;;15.63;9.10;;;7.40;99.90;;;;;;5013049;28;20026;-41
2022/12/13 12:12:44;;;;;;;17.17;9.00;;;7.20;98.80;;;;;;5012536;28;20489;-41
2022/12/13 12:15:17;;;;;;;14.90;8.88;;;7.70;98.00;;;;;;5012538;28;20105;-45
2022/12/13 12:17:43;;;;;;;14.68;8.55;;;8.30;96.70;;;;;;5010803;28;20022;-40
2022/12/13 12:20:13;;;;;;;16.30;9.48;;;8.10;96.40;;;;;;5013559;28;20040;-44
2022/12/13 12:22:48;;;;;;;15.25;9.23;;;7.60;95.10;;;;;;5010988;28;20029;-43
2022/12/13 12:25:26;;;;;;;18.08;9.52;;;6.50;96.80;;;;;;5012719;28;20022;-40
2022/12/13 12:28:16;;;;;;;18.98;10.18;;;5.60;98.10;;;;;;5011890;28;20030;-40
2022/12/13 12:31:06;;;;;;;19.58;9.15;;;4.90;99.10;;;;;;5026890;28;20021;-44
2022/12/13 12:33:50;;;;;;;16.85;9.02;;;4.40;99.90;;;;;;5028860;28;20029;-43
2022/12/13 12:36:28;;;;;;;15.77;8.63;;;4.10;99.90;;;;;;5036354;28;20059;-39
2022/12/13 12:39:05;;;;;;;17.20;9.52;;;3.80;99.90;;;;;;5029730;28;20487;-43
2022/12/13 12:41:52;;;;;;;20.05;9.25;;;3.70;99.90;;;;;;5033965;28;20096;-43
2022/12/13 12:44:28;;;;;;;15.82;8.50;;;3.60;99.90;;;;;;5037334;28;20098;-40
2022/12/13 12:47:18;;;;;;;19.10;8.98;;;3.50;99.90;;;;;;5032459;28;20039;-40
2022/12/13 12:50:11;;;;;;;16.65;9.40;;;3.40;99.90;;;;;;5030877;28;20119;-43
2022/12/13 12:52:58;;;;;;;16.75;8.35;;;3.50;99.90;;;;;;5033878;28;20040;-40
2022/12/13 12:55:37;;;;;;;17.77;9.20;;;3.60;99.90;;;;;;5033815;28;20029;-40
2022/12/13 12:58:44;;;;;;;18.83;8.75;;;3.60;99.90;;;;;;5031198;28;20018;-42